Time;durP1;ratioP1;P1;durP2;ratioP2;P2;SDS_P1;SDS_P2;PMS_P1;PMS_P2;Temp;Humidity;BMP_temperature;BMP_pressure;BME280_temperature;BME280_humidity;BME280_pressure;Samples;Min_cycle;Max_cycle;Signal;HPM_P1;HPM_P2
2022/04/27 00:02:07;;;;;;;4.08;3.00;;;;;;;10.27;72.61;99411.20;1772527;81;21627;-43
2022/04/27 00:04:35;;;;;;;3.75;2.70;;;;;;;10.23;72.65;99410.35;1772795;81;21691;-42
2022/04/27 00:07:06;;;;;;;5.12;2.80;;;;;;;10.15;72.92;99413.47;1772715;81;21002;-43
2022/04/27 00:09:33;;;;;;;4.53;2.98;;;;;;;10.04;73.05;99422.70;1772646;81;21021;-43
2022/04/27 00:12:02;;;;;;;2.80;2.33;;;;;;;9.95;73.37;99428.89;1779742;79;20961;-43
2022/04/27 00:14:33;;;;;;;2.85;2.50;;;;;;;9.91;73.58;99431.31;1791436;79;20887;-43
2022/04/27 00:17:02;;;;;;;2.98;2.55;;;;;;;9.84;73.74;99427.86;1791714;79;20977;-43
2022/04/27 00:19:29;;;;;;;4.47;2.80;;;;;;;9.76;73.96;99430.77;1791557;80;20993;-43
2022/04/27 00:21:58;;;;;;;3.72;2.52;;;;;;;9.68;74.12;99430.39;1791606;79;21003;-44
2022/04/27 00:24:26;;;;;;;3.95;2.60;;;;;;;9.62;74.24;99432.58;1791628;79;21504;-44
2022/04/27 00:26:52;;;;;;;3.87;2.70;;;;;;;9.57;74.42;99434.20;1791568;80;21502;-43
2022/04/27 00:29:19;;;;;;;3.17;2.47;;;;;;;9.57;74.49;99440.96;1791758;79;20942;-44
2022/04/27 00:31:48;;;;;;;4.50;2.70;;;;;;;9.49;74.62;99436.50;1791608;80;21009;-43
2022/04/27 00:34:16;;;;;;;;;;;;;;;9.42;74.78;99434.98;1794167;79;20918;-44
2022/04/27 00:36:44;;;;;;;2.80;2.35;;;;;;;9.38;74.89;99440.88;1791371;80;21125;-43
2022/04/27 00:39:12;;;;;;;3.15;2.85;;;;;;;9.29;75.13;99439.70;1791392;79;20918;-44
2022/04/27 00:41:58;;;;;;;3.12;2.52;;;;;;;9.27;75.29;99439.82;1791478;80;21021;-44
2022/04/27 00:44:08;;;;;;;3.92;2.67;;;;;;;9.23;75.50;99441.66;1788558;79;21028;-44
2022/04/27 00:46:36;;;;;;;5.97;2.80;;;;;;;9.16;75.75;99440.33;1791597;80;21042;-44
2022/04/27 00:49:06;;;;;;;3.87;2.58;;;;;;;9.12;75.94;99442.73;1791435;79;20954;-44
2022/04/27 00:51:33;;;;;;;3.10;2.80;;;;;;;9.09;76.15;99443.44;1791286;80;20973;-44
2022/04/27 00:54:01;;;;;;;4.20;2.85;;;;;;;9.05;76.17;99447.97;1791437;79;20918;-44
2022/04/27 00:56:28;;;;;;;3.75;2.98;;;;;;;8.97;76.33;99448.33;1791401;80;21014;-44
2022/04/27 00:58:55;;;;;;;4.53;3.35;;;;;;;8.90;76.53;99456.27;1791515;80;20998;-43
2022/04/27 01:01:23;;;;;;;4.95;2.77;;;;;;;8.84;76.71;99454.94;1791417;79;21782;-44
2022/04/27 01:03:52;;;;;;;3.87;2.72;;;;;;;8.81;76.93;99454.27;1791605;79;20918;-44
2022/04/27 01:06:19;;;;;;;3.90;2.80;;;;;;;8.79;77.19;99460.59;1769795;80;21234;-44
2022/04/27 01:08:46;;;;;;;4.00;2.90;;;;;;;8.74;77.40;99463.55;1791670;80;21005;-44
2022/04/27 01:11:20;;;;;;;4.72;3.10;;;;;;;8.68;77.70;99459.51;1791757;79;20998;-43
2022/04/27 01:13:49;;;;;;;3.47;2.52;;;;;;;8.69;77.79;99459.73;1790662;79;22260;-43
2022/04/27 01:16:17;;;;;;;3.55;2.90;;;;;;;8.73;77.80;99469.52;1791399;79;20922;-44
2022/04/27 01:18:45;;;;;;;3.50;2.65;;;;;;;8.79;77.84;99470.62;1791335;80;21039;-43
2022/04/27 01:21:13;;;;;;;3.58;3.00;;;;;;;8.77;78.01;99472.30;1791682;79;21468;-43
2022/04/27 01:23:42;;;;;;;5.17;2.70;;;;;;;8.77;78.02;99470.95;1790715;79;21089;-44
2022/04/27 01:26:09;;;;;;;3.92;2.90;;;;;;;8.78;78.10;99471.18;1791436;80;23148;-43
2022/04/27 01:28:38;;;;;;;4.65;3.08;;;;;;;8.84;77.89;99471.16;1791301;80;21069;-44
2022/04/27 01:31:10;;;;;;;5.22;3.15;;;;;;;8.89;77.74;99476.88;1791641;80;21532;-44
2022/04/27 01:33:38;;;;;;;4.58;3.10;;;;;;;8.92;77.61;99472.92;1791328;79;21038;-44
2022/04/27 01:36:07;;;;;;;4.78;3.00;;;;;;;8.93;77.47;99472.36;1791342;79;21523;-44
2022/04/27 01:38:42;;;;;;;3.25;2.95;;;;;;;8.94;77.22;99470.67;1791485;79;21782;-44
2022/04/27 01:41:09;;;;;;;4.30;3.08;;;;;;;8.96;76.87;99471.09;1791394;79;21064;-44
2022/04/27 01:43:37;;;;;;;6.55;3.15;;;;;;;9.00;76.72;99472.00;1791490;79;21008;-44
2022/04/27 01:46:07;;;;;;;6.05;3.20;;;;;;;8.97;76.68;99472.67;1791635;80;21618;-44
2022/04/27 01:49:57;;;;;;;6.30;2.87;;;;;;;8.98;76.51;99470.19;1815435;79;22008;-43
2022/04/27 01:55:10;;;;;;;3.70;2.83;;;;;;;8.98;76.22;99478.87;1788636;80;21066;-44
2022/04/27 01:57:37;;;;;;;3.22;2.92;;;;;;;8.97;75.98;99479.43;1788243;80;20921;-43
2022/04/27 02:00:07;;;;;;;5.40;3.35;;;;;;;8.91;75.99;99476.75;1788323;80;21019;-44
2022/04/27 02:02:37;;;;;;;5.33;2.90;;;;;;;8.87;76.06;99477.78;1788076;80;20972;-43
2022/04/27 02:05:07;;;;;;;3.52;2.90;;;;;;;8.80;76.04;99474.34;1788359;80;21530;-44
2022/04/27 02:07:34;;;;;;;3.83;2.90;;;;;;;8.80;76.01;99477.60;1788418;80;21207;-44
2022/04/27 02:10:01;;;;;;;4.37;3.17;;;;;;;8.81;76.09;99475.13;1788488;80;20992;-44
2022/04/27 02:12:28;;;;;;;5.30;3.55;;;;;;;8.82;75.98;99481.52;1788238;80;21517;-43
2022/04/27 02:14:57;;;;;;;4.12;3.20;;;;;;;8.80;75.94;99485.72;1787026;80;21519;-43
2022/04/27 02:17:24;;;;;;;4.60;3.05;;;;;;;8.79;75.84;99482.22;1788318;80;21024;-43
2022/04/27 02:19:51;;;;;;;4.28;3.20;;;;;;;8.77;75.76;99484.47;1788254;80;21340;-44
2022/04/27 02:22:19;;;;;;;3.45;3.12;;;;;;;8.78;75.70;99484.70;1788219;80;20972;-43
2022/04/27 02:24:45;;;;;;;6.87;3.27;;;;;;;8.75;75.62;99493.50;1788217;80;21536;-43
2022/04/27 02:27:12;;;;;;;4.67;3.25;;;;;;;8.71;75.67;99485.87;1788620;80;21499;-43
2022/04/27 02:29:40;;;;;;;5.70;3.05;;;;;;;8.67;75.73;99488.45;1788438;80;21052;-43
2022/04/27 02:32:09;;;;;;;4.15;3.25;;;;;;;8.68;75.67;99487.89;1787496;80;23186;-43
2022/04/27 02:34:37;;;;;;;6.20;3.20;;;;;;;8.72;75.49;99493.61;1788441;80;20929;-43
2022/04/27 02:37:06;;;;;;;7.20;3.62;;;;;;;8.72;75.37;99489.55;1788406;80;21008;-43
2022/04/27 02:39:34;;;;;;;4.70;3.62;;;;;;;8.70;75.38;99490.48;1788286;80;21495;-44
2022/04/27 02:42:03;;;;;;;4.90;3.75;;;;;;;8.67;75.29;99489.80;1788249;80;21048;-43
2022/04/27 02:44:30;;;;;;;7.78;3.35;;;;;;;8.67;75.22;99491.15;1773088;80;21185;-44
2022/04/27 02:46:59;;;;;;;4.42;3.40;;;;;;;8.69;75.12;99492.95;1788220;80;20968;-44
2022/04/27 02:52:13;;;;;;;5.45;3.33;;;;;;;8.65;74.95;99496.13;1774732;80;21033;-44
2022/04/27 02:54:58;;;;;;;4.15;3.12;;;;;;;8.59;75.02;99496.70;1728775;82;21053;-43
2022/04/27 02:57:26;;;;;;;4.30;3.17;;;;;;;8.55;75.08;99501.22;1760242;80;21220;-43
2022/04/27 02:59:54;;;;;;;6.33;3.40;;;;;;;8.52;75.07;99501.91;1774351;80;21591;-43
2022/04/27 03:02:21;;;;;;;4.58;3.62;;;;;;;8.51;75.19;99501.69;1774158;80;21004;-43
2022/04/27 03:04:48;;;;;;;4.50;3.30;;;;;;;8.50;75.19;99506.86;1774016;80;21037;-43
2022/04/27 03:07:16;;;;;;;6.55;3.70;;;;;;;8.45;75.14;99503.84;1774284;80;20985;-43
2022/04/27 03:09:47;;;;;;;5.67;4.03;;;;;;;8.39;75.24;99506.55;1774032;80;21238;-43
2022/04/27 03:12:13;;;;;;;5.50;3.35;;;;;;;8.38;75.33;99507.66;1774330;80;21524;-43
2022/04/27 03:14:43;;;;;;;;;;;;;;;8.42;75.11;99510.49;1776846;80;21610;-43
2022/04/27 03:17:11;;;;;;;5.92;3.85;;;;;;;8.41;75.07;99511.05;1774341;80;20176;-43
2022/04/27 03:19:38;;;;;;;7.75;5.60;;;;;;;8.33;75.34;99515.23;1774162;80;21079;-43
2022/04/27 03:22:06;;;;;;;12.10;7.03;;;;;;;8.35;75.35;99516.46;1767133;80;21229;-44
2022/04/27 03:24:35;;;;;;;10.32;6.03;;;;;;;8.37;75.27;99521.53;1774213;80;20978;-43
2022/04/27 03:27:05;;;;;;;8.23;5.70;;;;;;;8.42;75.22;99524.79;1772404;80;21013;-43
2022/04/27 03:29:32;;;;;;;7.85;5.60;;;;;;;8.50;75.16;99523.08;1774072;80;21068;-43
2022/04/27 03:32:01;;;;;;;5.58;4.47;;;;;;;8.60;75.12;99524.74;1774179;80;21009;-43
2022/04/27 03:34:30;;;;;;;5.17;4.30;;;;;;;8.71;75.08;99526.41;1774125;80;21183;-44
2022/04/27 03:36:58;;;;;;;4.58;3.50;;;;;;;8.78;74.98;99518.48;1774319;80;20926;-43
2022/04/27 03:39:27;;;;;;;4.28;3.62;;;;;;;8.87;74.76;99519.69;1774090;80;20938;-43
2022/04/27 03:41:57;;;;;;;4.42;3.95;;;;;;;8.95;74.70;99526.89;1774272;80;21531;-43
2022/04/27 03:44:24;;;;;;;5.15;3.95;;;;;;;9.09;74.47;99524.57;1774225;80;21041;-43
2022/04/27 03:46:51;;;;;;;8.05;4.70;;;;;;;9.22;74.23;99527.42;1774201;80;21238;-43
2022/04/27 03:49:18;;;;;;;5.92;3.98;;;;;;;9.28;73.94;99527.97;1774096;80;21515;-43
2022/04/27 03:51:45;;;;;;;6.97;4.47;;;;;;;9.29;73.46;99526.84;1774275;80;21017;-43
2022/04/27 03:54:13;;;;;;;7.25;4.28;;;;;;;9.27;73.50;99539.91;1774184;80;20894;-42
2022/04/27 03:56:42;;;;;;;6.22;3.70;;;;;;;9.27;73.77;99539.35;1774006;80;20965;-42
2022/04/27 03:59:10;;;;;;;6.53;4.28;;;;;;;9.38;73.86;99538.29;1774077;80;23188;-42
2022/04/27 04:01:39;;;;;;;6.62;4.12;;;;;;;9.49;73.37;99541.47;1774055;80;21024;-42
2022/04/27 04:04:06;;;;;;;6.35;4.62;;;;;;;9.55;72.96;99545.50;1769344;80;20965;-42
2022/04/27 04:06:33;;;;;;;6.78;4.35;;;;;;;9.58;72.55;99548.09;1768967;80;21554;-42
2022/04/27 04:09:02;;;;;;;7.25;4.65;;;;;;;9.61;72.13;99550.09;1774115;80;20906;-42
2022/04/27 04:11:31;;;;;;;6.83;4.05;;;;;;;9.63;72.00;99549.20;1773972;80;20945;-42
2022/04/27 04:13:59;;;;;;;6.45;4.50;;;;;;;9.72;71.87;99548.45;1772137;80;21079;-42
2022/04/27 04:16:41;;;;;;;5.90;4.65;;;;;;;9.79;71.58;99555.95;1773520;80;21053;-42
2022/04/27 04:19:15;;;;;;;7.95;4.97;;;;;;;9.83;71.63;99556.25;1773671;80;20958;-42
2022/04/27 04:21:44;;;;;;;8.03;5.37;;;;;;;9.85;70.92;99560.77;1772350;80;21072;-43
2022/04/27 04:24:14;;;;;;;;;;;;;;;9.83;70.86;99564.38;1776106;80;21214;-42
2022/04/27 04:29:31;;;;;;;8.53;4.28;;;;;;;9.87;70.95;99559.86;1773989;80;21033;-42
2022/04/27 04:31:59;;;;;;;6.45;4.50;;;;;;;9.96;70.51;99560.47;1774039;80;21379;-41
2022/04/27 04:34:28;;;;;;;7.20;4.30;;;;;;;9.98;70.33;99567.66;1773793;80;21025;-43
2022/04/27 04:36:55;;;;;;;7.50;4.78;;;;;;;9.97;70.11;99572.85;1774213;80;21877;-44
2022/04/27 04:39:24;;;;;;;7.08;4.10;;;;;;;9.97;70.40;99576.16;1774133;80;20961;-44
2022/04/27 04:41:53;;;;;;;7.70;4.28;;;;;;;10.00;70.55;99578.16;1774209;80;21012;-44
2022/04/27 04:44:21;;;;;;;6.47;3.75;;;;;;;10.06;70.38;99580.03;1774345;80;20981;-43
2022/04/27 04:46:55;;;;;;;5.25;3.80;;;;;;;10.11;70.24;99585.19;1771345;80;21006;-44
2022/04/27 04:49:23;;;;;;;7.30;3.47;;;;;;;10.12;70.19;99588.87;1773660;80;23123;-44
2022/04/27 04:51:56;;;;;;;6.03;3.33;;;;;;;10.14;69.69;99593.95;1740726;80;21012;-44
2022/04/27 04:54:42;;;;;;;4.78;3.35;;;;;;;10.15;69.75;99596.89;1774542;80;20938;-43
2022/04/27 04:57:11;;;;;;;4.12;3.15;;;;;;;10.19;69.72;99596.44;1773921;80;21045;-43
2022/04/27 04:59:39;;;;;;;4.17;3.52;;;;;;;10.27;69.89;99593.54;1774039;80;21013;-43
2022/04/27 05:02:17;;;;;;;5.12;3.25;;;;;;;10.36;70.03;99601.50;1706056;80;21344;-44
2022/04/27 05:04:54;;;;;;;4.75;3.08;;;;;;;10.38;70.40;99601.36;1773673;80;21009;-43
2022/04/27 05:07:23;;;;;;;4.72;3.55;;;;;;;10.45;69.57;99600.75;1773082;80;20969;-44
2022/04/27 05:10:07;;;;;;;5.65;3.40;;;;;;;10.46;68.96;99601.73;1774160;80;21507;-44
2022/04/27 05:12:45;;;;;;;7.20;3.47;;;;;;;10.43;68.83;99605.72;1773584;80;21542;-44
2022/04/27 05:15:33;;;;;;;3.62;3.20;;;;;;;10.43;69.16;99609.78;1773243;80;20894;-44
2022/04/27 05:18:17;;;;;;;4.87;3.50;;;;;;;10.42;68.78;99609.00;1773854;80;21029;-43
2022/04/27 05:20:47;;;;;;;5.87;3.33;;;;;;;10.41;68.86;99609.34;1770402;80;21649;-44
2022/04/27 05:23:16;;;;;;;4.75;3.50;;;;;;;10.43;68.93;99609.78;1769219;80;21389;-43
2022/04/27 05:25:52;;;;;;;4.28;3.35;;;;;;;10.44;68.76;99614.08;1751116;80;21009;-43
2022/04/27 05:31:54;;;;;;;5.58;3.20;;;;;;;10.43;68.96;99614.64;1773795;80;21207;-44
2022/04/27 05:33:52;;;;;;;3.70;2.87;;;;;;;10.55;68.83;99620.53;1772087;80;21555;-42
2022/04/27 05:36:21;;;;;;;4.83;3.50;;;;;;;10.55;68.66;99619.19;1773588;80;20930;-42
2022/04/27 05:38:59;;;;;;;4.95;3.58;;;;;;;10.57;68.84;99626.38;1750871;80;21022;-42
2022/04/27 05:41:34;;;;;;;5.08;3.20;;;;;;;10.62;69.05;99630.73;1750633;80;21092;-42
2022/04/27 05:44:24;;;;;;;4.65;3.12;;;;;;;10.68;68.78;99630.13;1774417;80;20925;-42
2022/04/27 05:46:57;;;;;;;5.17;2.95;;;;;;;10.79;68.62;99632.52;1741244;80;20938;-42
2022/04/27 05:49:25;;;;;;;3.98;3.20;;;;;;;10.86;67.98;99634.02;1775840;80;21789;-42
2022/04/27 05:51:54;;;;;;;5.17;3.65;;;;;;;10.92;67.73;99629.10;1780347;80;21037;-43
2022/04/27 05:54:26;;;;;;;5.45;3.50;;;;;;;10.97;67.39;99632.10;1777951;79;23096;-43
2022/04/27 05:56:53;;;;;;;4.30;3.12;;;;;;;11.01;67.65;99640.53;1774672;80;20962;-43
2022/04/27 05:59:38;;;;;;;4.30;3.45;;;;;;;11.10;67.75;99641.11;1774776;80;20918;-43
2022/04/27 06:02:11;;;;;;;3.35;2.98;;;;;;;11.18;67.36;99643.41;1768272;80;21495;-44
2022/04/27 06:04:38;;;;;;;4.95;3.33;;;;;;;11.31;67.33;99643.48;1774623;80;21088;-44
2022/04/27 06:07:07;;;;;;;4.30;3.45;;;;;;;11.41;66.85;99651.63;1774515;80;21263;-44
2022/04/27 06:09:35;;;;;;;;;;;;;;;11.45;66.56;99656.55;1777143;80;21043;-44
2022/04/27 06:12:09;;;;;;;4.10;3.17;;;;;;;11.50;66.48;99652.19;1773497;80;20437;-43
2022/04/27 06:14:39;;;;;;;5.30;3.50;;;;;;;11.47;66.62;99656.42;1774447;80;20973;-43
2022/04/27 06:17:08;;;;;;;4.53;3.40;;;;;;;11.53;65.83;99656.33;1774270;80;21543;-44
2022/04/27 06:19:36;;;;;;;6.70;3.22;;;;;;;11.56;65.08;99668.42;1774488;80;21237;-44
2022/04/27 06:22:05;;;;;;;4.40;3.33;;;;;;;11.58;65.38;99666.91;1774511;80;20953;-44
2022/04/27 06:24:33;;;;;;;4.80;3.40;;;;;;;11.65;65.36;99670.34;1725476;82;20948;-44
2022/04/27 06:27:03;;;;;;;4.53;3.50;;;;;;;11.69;64.94;99674.69;1732198;82;21513;-44
2022/04/27 06:29:30;;;;;;;4.58;3.15;;;;;;;11.71;65.32;99674.34;1735154;82;21043;-44
2022/04/27 06:31:58;;;;;;;4.83;3.50;;;;;;;11.68;64.59;99679.91;1735073;82;21129;-44
2022/04/27 06:34:26;;;;;;;5.17;3.80;;;;;;;11.69;65.14;99685.56;1735136;82;21560;-44
2022/04/27 06:36:53;;;;;;;6.72;4.00;;;;;;;11.68;64.20;99683.98;1735395;82;21031;-44
2022/04/27 06:39:25;;;;;;;5.60;3.60;;;;;;;11.65;64.23;99687.42;1733105;82;20967;-43
2022/04/27 06:41:52;;;;;;;6.05;3.50;;;;;;;11.68;65.04;99691.34;1735357;82;21095;-43
2022/04/27 06:44:25;;;;;;;5.90;3.67;;;;;;;11.79;65.02;99687.50;1735433;82;21260;-44
2022/04/27 06:47:09;;;;;;;4.80;3.75;;;;;;;11.88;64.38;99693.50;1735469;82;21808;-43
2022/04/27 06:49:55;;;;;;;6.25;3.92;;;;;;;11.92;63.86;99702.50;1733629;81;21044;-44
2022/04/27 06:52:43;;;;;;;6.05;3.95;;;;;;;11.95;64.14;99697.72;1730002;83;20909;-44
2022/04/27 06:55:17;;;;;;;4.95;3.77;;;;;;;12.00;63.92;99699.58;1692475;82;21511;-44
2022/04/27 06:58:04;;;;;;;5.12;3.70;;;;;;;12.02;63.23;99703.27;1730108;83;21139;-44
2022/04/27 07:00:31;;;;;;;4.85;3.52;;;;;;;12.01;63.55;99709.84;1730044;83;21549;-43
2022/04/27 07:03:02;;;;;;;6.05;3.95;;;;;;;12.10;63.88;99709.06;1729715;83;21067;-44
2022/04/27 07:05:28;;;;;;;4.50;3.47;;;;;;;12.19;62.85;99713.70;1729778;83;21031;-43
2022/04/27 07:07:55;;;;;;;5.33;3.58;;;;;;;12.23;62.72;99717.25;1729958;83;21079;-44
2022/04/27 07:10:23;;;;;;;5.47;3.72;;;;;;;12.28;63.05;99719.67;1729733;83;20936;-44
2022/04/27 07:12:50;;;;;;;7.37;4.33;;;;;;;12.37;63.19;99717.50;1730024;83;21580;-44
2022/04/27 07:15:17;;;;;;;4.60;3.80;;;;;;;12.47;62.38;99721.55;1729893;83;21482;-44
2022/04/27 07:17:44;;;;;;;6.53;4.15;;;;;;;12.48;61.18;99723.92;1729712;83;21027;-44
2022/04/27 07:20:12;;;;;;;5.33;4.15;;;;;;;12.46;61.39;99722.12;1729813;83;21011;-43
2022/04/27 07:22:40;;;;;;;5.80;4.35;;;;;;;12.47;61.49;99724.27;1729591;83;22164;-43
2022/04/27 07:25:08;;;;;;;6.25;3.72;;;;;;;12.47;61.56;99729.14;1729634;83;21004;-44
2022/04/27 07:27:37;;;;;;;4.90;3.58;;;;;;;12.50;61.65;99726.25;1729728;83;20975;-43
2022/04/27 07:30:06;;;;;;;5.22;4.05;;;;;;;12.62;61.72;99722.79;1729696;83;21024;-44
2022/04/27 07:32:33;;;;;;;5.60;4.08;;;;;;;12.76;61.13;99723.59;1730109;83;21028;-44
2022/04/27 07:35:00;;;;;;;6.47;4.20;;;;;;;12.85;60.72;99721.97;1729729;83;21254;-44
2022/04/27 07:37:27;;;;;;;6.05;4.03;;;;;;;12.91;60.28;99717.79;1729612;83;21595;-44
2022/04/27 07:39:57;;;;;;;6.17;3.95;;;;;;;12.91;60.21;99724.02;1729802;82;20991;-44
2022/04/27 07:42:26;;;;;;;5.92;4.37;;;;;;;12.92;60.27;99723.45;1729877;83;21098;-44
2022/04/27 07:44:53;;;;;;;5.78;4.10;;;;;;;12.93;60.78;99727.72;1729832;83;21063;-44
2022/04/27 07:47:20;;;;;;;7.22;3.70;;;;;;;12.98;61.20;99724.11;1729870;83;21121;-44
2022/04/27 07:49:48;;;;;;;5.12;3.80;;;;;;;13.11;61.26;99728.81;1730371;82;21069;-44
2022/04/27 07:52:16;;;;;;;4.92;3.80;;;;;;;13.32;60.31;99718.78;1735454;82;20964;-43
2022/04/27 07:54:44;;;;;;;5.80;3.80;;;;;;;13.51;59.46;99720.61;1735213;82;21055;-44
2022/04/27 07:57:11;;;;;;;3.83;3.42;;;;;;;13.64;59.77;99727.38;1746726;81;21046;-44
2022/04/27 07:59:39;;;;;;;3.98;3.55;;;;;;;13.76;58.30;99727.91;1762198;81;21538;-44
2022/04/27 08:02:06;;;;;;;4.28;3.67;;;;;;;13.93;58.67;99732.02;1762430;81;21657;-43
2022/04/27 08:04:33;;;;;;;3.98;3.58;;;;;;;14.15;58.48;99737.89;1762442;81;21464;-43
2022/04/27 08:06:59;;;;;;;6.08;3.10;;;;;;;14.39;57.87;99741.27;1762399;81;21030;-44
2022/04/27 08:09:26;;;;;;;4.45;3.62;;;;;;;14.51;56.03;99743.16;1762267;81;21077;-43
2022/04/27 08:11:54;;;;;;;3.75;3.35;;;;;;;14.58;57.06;99744.56;1762390;81;21272;-44
2022/04/27 08:14:22;;;;;;;3.95;3.10;;;;;;;14.67;55.45;99740.15;1762368;81;21575;-44
2022/04/27 08:16:51;;;;;;;4.58;3.35;;;;;;;14.69;55.52;99750.13;1762123;81;21049;-44
2022/04/27 08:19:20;;;;;;;4.87;3.30;;;;;;;14.65;54.52;99752.04;1762424;81;21539;-44
2022/04/27 08:21:48;;;;;;;4.22;3.50;;;;;;;14.62;55.32;99753.56;1762340;81;21122;-44
2022/04/27 08:24:19;;;;;;;4.37;3.00;;;;;;;14.68;55.25;99752.64;1762395;81;20985;-44
2022/04/27 08:26:47;;;;;;;3.83;3.17;;;;;;;14.75;55.71;99756.80;1762469;81;21017;-44
2022/04/27 08:29:14;;;;;;;5.08;3.47;;;;;;;14.86;56.12;99756.32;1762137;81;21009;-44
2022/04/27 08:31:41;;;;;;;4.40;3.65;;;;;;;14.97;54.08;99761.26;1762111;81;21058;-43
2022/04/27 08:34:08;;;;;;;3.30;3.00;;;;;;;14.99;53.74;99760.31;1762197;81;21084;-44
2022/04/27 08:36:35;;;;;;;6.55;3.92;;;;;;;14.95;54.47;99759.50;1762043;81;21108;-43
2022/04/27 08:39:04;;;;;;;4.53;3.50;;;;;;;14.96;54.19;99758.32;1762013;81;21509;-43
2022/04/27 08:41:32;;;;;;;6.25;3.15;;;;;;;14.99;53.43;99760.31;1762120;81;20950;-44
2022/04/27 08:44:01;;;;;;;3.80;3.33;;;;;;;15.01;53.45;99764.01;1762156;81;21602;-44
2022/04/27 08:46:28;;;;;;;6.22;3.45;;;;;;;15.03;52.42;99767.94;1762104;81;21010;-43
2022/04/27 08:48:56;;;;;;;4.25;3.12;;;;;;;14.96;52.27;99769.24;1762019;81;23218;-44
2022/04/27 08:51:23;;;;;;;4.05;3.45;;;;;;;14.88;53.11;99770.36;1761993;81;20934;-44
2022/04/27 08:53:49;;;;;;;4.03;3.30;;;;;;;14.86;53.45;99775.43;1761946;81;21017;-44
2022/04/27 08:56:17;;;;;;;5.40;3.77;;;;;;;14.87;53.00;99767.42;1761965;81;21084;-44
2022/04/27 08:58:43;;;;;;;3.92;3.15;;;;;;;14.82;53.18;99766.40;1762051;81;20930;-44
2022/04/27 09:01:10;;;;;;;3.42;3.10;;;;;;;14.78;52.53;99766.95;1753151;80;21193;-44
2022/04/27 09:03:40;;;;;;;6.60;3.33;;;;;;;14.72;53.11;99769.25;1742378;82;20969;-44
2022/04/27 09:06:12;;;;;;;5.47;3.45;;;;;;;14.73;53.28;99772.77;1744022;82;21543;-44
2022/04/27 09:08:44;;;;;;;5.85;3.20;;;;;;;14.75;52.93;99773.97;1743646;82;20985;-44
2022/04/27 09:11:25;;;;;;;3.67;3.15;;;;;;;14.47;52.78;99728.70;1743853;82;21049;-44
2022/04/27 09:13:53;;;;;;;;;;;;;;;14.74;53.32;99766.15;1749399;80;21794;-44
2022/04/27 09:16:22;;;;;;;4.28;3.27;;;;;;;14.79;54.00;99761.70;1774949;80;20127;-44
2022/04/27 09:21:56;;;;;;;6.33;3.40;;;;;;;15.03;53.34;99768.52;1743912;82;21016;-44
2022/04/27 09:24:23;;;;;;;3.37;3.05;;;;;;;15.25;52.90;99766.73;1743989;82;20998;-43
2022/04/27 09:27:16;;;;;;;3.42;2.90;;;;;;;15.46;53.00;99766.84;1743947;82;21066;-43
2022/04/27 09:29:43;;;;;;;3.92;3.30;;;;;;;15.67;51.95;99765.63;1743776;82;21582;-43
2022/04/27 09:32:14;;;;;;;4.10;2.95;;;;;;;15.80;50.48;99753.77;1744057;82;21547;-43
2022/04/27 09:34:50;;;;;;;4.90;3.42;;;;;;;15.84;51.47;99762.77;1743812;82;20978;-43
2022/04/27 09:37:19;;;;;;;4.03;3.17;;;;;;;15.91;49.64;99760.86;1744123;82;21045;-43
2022/04/27 09:40:12;;;;;;;4.35;2.92;;;;;;;16.02;49.94;99756.19;1743939;82;21158;-43
2022/04/27 09:42:45;;;;;;;3.42;2.87;;;;;;;16.22;50.02;99759.95;1744218;82;21045;-42
2022/04/27 09:45:25;;;;;;;4.53;2.90;;;;;;;16.46;49.76;99762.73;1743963;82;21036;-43
2022/04/27 09:48:08;;;;;;;3.58;3.12;;;;;;;16.66;47.59;99757.70;1743824;82;20996;-43
2022/04/27 09:50:55;;;;;;;4.60;2.80;;;;;;;16.72;47.85;99757.52;1743758;82;21100;-43
2022/04/27 09:53:22;;;;;;;3.45;2.85;;;;;;;16.81;45.96;99756.55;1744044;82;21065;-43
2022/04/27 09:55:54;;;;;;;4.03;2.67;;;;;;;16.89;45.71;99756.73;1743966;82;20942;-43
2022/04/27 09:58:25;;;;;;;3.42;2.55;;;;;;;17.05;46.75;99763.18;1744401;82;21053;-43
2022/04/27 10:00:52;;;;;;;3.77;2.85;;;;;;;17.29;45.86;99761.58;1743975;82;21024;-42
2022/04/27 10:03:25;;;;;;;3.10;2.65;;;;;;;17.52;46.18;99755.67;1741513;82;21053;-43
2022/04/27 10:05:52;;;;;;;4.37;2.80;;;;;;;17.70;44.31;99755.83;1744040;82;21130;-43
2022/04/27 10:08:19;;;;;;;2.90;2.60;;;;;;;17.81;44.26;99761.28;1744149;82;21503;-43
2022/04/27 10:10:47;;;;;;;5.00;2.90;;;;;;;17.86;44.96;99771.06;1744156;82;21041;-44
2022/04/27 10:13:15;;;;;;;4.80;2.67;;;;;;;17.97;44.29;99759.43;1744338;82;21037;-44
2022/04/27 10:15:45;;;;;;;4.17;2.58;;;;;;;18.10;44.63;99757.23;1744385;82;21495;-43
2022/04/27 10:18:17;;;;;;;4.25;2.62;;;;;;;18.36;42.08;99752.35;1744393;82;20981;-43
2022/04/27 10:20:45;;;;;;;4.08;2.67;;;;;;;18.56;42.37;99758.92;1744144;82;20969;-44
2022/04/27 10:23:33;;;;;;;3.52;2.55;;;;;;;18.68;41.89;99759.83;1744528;82;22171;-44
2022/04/27 10:26:21;;;;;;;3.15;2.55;;;;;;;18.80;41.87;99751.67;1744243;82;21092;-44
2022/04/27 10:28:53;;;;;;;3.35;2.60;;;;;;;18.97;41.54;99764.50;1705783;84;21075;-43
2022/04/27 10:31:47;;;;;;;4.45;2.52;;;;;;;19.16;41.39;99757.64;1743420;82;21259;-43
2022/04/27 10:34:24;;;;;;;3.92;2.50;;;;;;;19.33;40.63;99758.84;1744233;82;21539;-43
2022/04/27 10:36:56;;;;;;;4.87;2.40;;;;;;;19.51;40.13;99760.83;1743876;82;21596;-44
2022/04/27 10:39:26;;;;;;;2.87;2.33;;;;;;;19.69;39.28;99759.27;1743388;82;21053;-43
2022/04/27 10:42:07;;;;;;;2.70;2.25;;;;;;;19.99;39.54;99754.38;1744192;82;21040;-42
2022/04/27 10:44:58;;;;;;;3.40;2.30;;;;;;;20.16;38.27;99764.95;1743915;82;20910;-43
2022/04/27 10:47:29;;;;;;;4.10;2.27;;;;;;;20.14;37.47;99759.86;1744036;82;21008;-43
2022/04/27 10:50:15;;;;;;;4.83;2.58;;;;;;;20.15;38.49;99760.05;1693813;82;21535;-43
2022/04/27 10:52:44;;;;;;;2.83;2.35;;;;;;;20.26;37.94;99755.18;1698960;83;20984;-42
2022/04/27 10:55:37;;;;;;;4.03;2.58;;;;;;;20.39;38.17;99760.33;1717177;83;21048;-43
2022/04/27 10:58:21;;;;;;;3.37;2.45;;;;;;;20.50;35.98;99764.90;1712372;83;21159;-43
2022/04/27 11:01:06;;;;;;;2.20;2.00;;;;;;;20.49;36.25;99757.83;1716785;83;21608;-43
2022/04/27 11:03:36;;;;;;;3.42;2.45;;;;;;;20.33;36.55;99752.96;1716986;83;20964;-43
2022/04/27 11:06:10;;;;;;;2.12;1.90;;;;;;;20.29;35.27;99763.20;1717053;83;21057;-44
2022/04/27 11:09:15;;;;;;;2.80;2.08;;;;;;;20.26;35.90;99766.19;1716938;83;21016;-43
2022/04/27 11:11:53;;;;;;;3.35;1.90;;;;;;;20.24;36.24;99762.28;1716879;83;21132;-44
2022/04/27 11:14:30;;;;;;;2.83;2.22;;;;;;;20.13;35.27;99761.08;1716605;83;20936;-44
2022/04/27 11:16:58;;;;;;;3.37;2.47;;;;;;;20.17;36.00;99770.66;1717163;83;21459;-44
2022/04/27 11:19:39;;;;;;;3.02;2.15;;;;;;;20.27;36.07;99759.50;1716930;83;20972;-44
2022/04/27 11:22:15;;;;;;;2.02;1.80;;;;;;;20.38;34.07;99757.37;1716869;83;21016;-44
2022/04/27 11:24:49;;;;;;;3.15;1.70;;;;;;;20.35;34.37;99755.47;1716552;83;21135;-44
2022/04/27 11:27:26;;;;;;;2.33;1.85;;;;;;;20.39;34.17;99751.28;1691787;83;20972;-44
2022/04/27 11:29:53;;;;;;;2.60;1.77;;;;;;;20.43;34.94;99755.38;1716910;83;20976;-44
2022/04/27 11:32:20;;;;;;;2.58;1.90;;;;;;;20.46;33.24;99751.19;1717192;83;21019;-44
2022/04/27 11:34:51;;;;;;;2.15;1.80;;;;;;;20.37;33.44;99751.72;1667774;83;21471;-44
2022/04/27 11:37:20;;;;;;;2.67;1.77;;;;;;;20.30;34.04;99754.56;1717181;83;21130;-44
2022/04/27 11:39:51;;;;;;;2.25;1.90;;;;;;;20.25;33.34;99757.74;1717206;83;20956;-44
2022/04/27 11:42:17;;;;;;;3.03;1.73;;;;;;;20.26;34.33;99755.78;1717313;83;21471;-44
2022/04/27 11:44:58;;;;;;;2.47;1.50;;;;;;;20.29;33.21;99749.42;1717248;83;21019;-44
2022/04/27 11:47:33;;;;;;;3.47;1.80;;;;;;;20.40;33.70;99744.58;1716882;83;21024;-44
2022/04/27 11:50:01;;;;;;;1.85;1.65;;;;;;;20.50;31.76;99747.00;1717187;83;21228;-44
2022/04/27 11:52:31;;;;;;;2.17;1.70;;;;;;;20.39;32.13;99741.64;1732093;82;21013;-44
2022/04/27 11:55:03;;;;;;;;;;;;;;;20.22;33.04;99736.56;1741640;82;21036;-43
2022/04/27 11:57:30;;;;;;;3.05;1.82;;;;;;;20.13;33.25;99743.77;1737820;82;20130;-42
2022/04/27 11:59:58;;;;;;;2.95;1.92;;;;;;;19.91;33.04;99737.76;1738847;82;21053;-43
2022/04/27 12:02:26;;;;;;;2.42;2.00;;;;;;;19.74;34.35;99736.02;1738672;82;21144;-43
2022/04/27 12:04:57;;;;;;;2.92;1.90;;;;;;;19.62;34.35;99733.80;1738625;82;20994;-43
2022/04/27 12:07:26;;;;;;;4.47;1.80;;;;;;;19.55;34.21;99730.55;1738929;82;20945;-43
2022/04/27 12:10:09;;;;;;;2.30;1.65;;;;;;;19.45;33.41;99729.48;1738450;82;21530;-43
2022/04/27 12:12:38;;;;;;;3.62;1.90;;;;;;;19.37;33.34;99732.67;1729386;82;21053;-43